This is the latest recevied weather packets stored in our database for station/object OE6PLD-13. If no packets are shown the sender has not sent any weather packets the latest 1 day(s).
| Time | Temp. | Humidity | Pressure | Rain* | Wind** | Luminosity | Snow |
|---|---|---|---|---|---|---|---|
| 1836274737 | 11.67° C | 99% | 1015.9 hPa | 0.76 mm | 0 m/s | 0 W/m² | - |
| 1836274550 | 11.67° C | 99% | 1016 hPa | 0.76 mm | 0 m/s | 0 W/m² | - |
| 1836274537 | 11.67° C | 99% | 1015.8 hPa | 0.76 mm | 0 m/s | 0 W/m² | - |
| 1836274367 | 11.67° C | 99% | 1016 hPa | 0.76 mm | 0 m/s | 0 W/m² | - |
| 1836274353 | 11.67° C | 99% | 1015.8 hPa | 0.76 mm | 0 m/s | 0 W/m² | - |
| 1836274183 | 12.22° C | 99% | 1015.9 hPa | 0.76 mm | 0 m/s | 0 W/m² | - |
| 1836274170 | 11.67° C | 99% | 1015.8 hPa | 0.76 mm | 0 m/s | 0 W/m² | - |
| 1836274000 | 11.67° C | 99% | 1015.9 hPa | 0.76 mm | 0 m/s | 0 W/m² | - |
| 1778019447 | 15° C | 74% | 1012.9 hPa | 0.76 mm | 0.45 m/s, 102° | 0 W/m² | - |
| 1778019264 | 15° C | 74% | 1012.9 hPa | 0.76 mm | 0.89 m/s, 102° | 0 W/m² | - |
| 1778019080 | 15° C | 74% | 1013 hPa | 0.76 mm | 0 m/s | 0 W/m² | - |
| 1778018897 | 15° C | 74% | 1012.9 hPa | 0.76 mm | 0 m/s | 0 W/m² | - |
| 1778018713 | 15° C | 74% | 1012.9 hPa | 0.76 mm | 0.45 m/s, 98° | 0 W/m² | - |
| 1778018530 | 14.44° C | 75% | 1012.8 hPa | 0.76 mm | 0 m/s | 0 W/m² | - |
| 1778018347 | 14.44° C | 75% | 1012.9 hPa | 0.76 mm | 1.34 m/s, 96° | 0 W/m² | - |
| 1778018163 | 14.44° C | 75% | 1013 hPa | 0.76 mm | 0 m/s | 0 W/m² | - |
| 1778017980 | 14.44° C | 75% | 1012.9 hPa | 0.76 mm | 0 m/s | 0 W/m² | - |
| 1778017797 | 15° C | 74% | 1013.1 hPa | 0.76 mm | 0 m/s | 0 W/m² | - |
| 1778017613 | 14.44° C | 74% | 1013.1 hPa | 0.76 mm | 0 m/s | 0 W/m² | - |
| 1778017430 | 15° C | 74% | 1013.1 hPa | 0.76 mm | 0 m/s | 0 W/m² | - |
| 1778017247 | 14.44° C | 75% | 1012.9 hPa | 0.76 mm | 1.79 m/s, 99° | 0 W/m² | - |
| 1778017063 | 14.44° C | 75% | 1012.7 hPa | 0.76 mm | 0 m/s | 0 W/m² | - |
| 1778016880 | 14.44° C | 74% | 1013 hPa | 0.76 mm | 0 m/s | 0 W/m² | - |
| 1778016697 | 14.44° C | 76% | 1012.9 hPa | 0.76 mm | 0.45 m/s, 95° | 0 W/m² | - |
| 1778016513 | 13.89° C | 76% | 1013 hPa | 0.76 mm | 0.89 m/s, 95° | 0 W/m² | - |
* Rain latest hour (hover to see other rain measurements)
** Current wind speed in m/s (hover to see current wind gust speed)